Terminal Aerodrome Forecast
Issued by NWS

Home | Current Version | Previous Version | Text Only | Print | Product List | Glossary On
Versions: 1 2 3 4 5 6 7 8 9 10 11 12 13 14 15 16 17 18 19 20 21
689
FTUS43 KGRR 230522
TAFLAN
TAF
KLAN 230522Z 2306/2406 20007KT P6SM BKN060
     FM230800 21006KT P6SM -SHRA OVC040
     FM231400 22007KT 6SM BR VCTS OVC045CB
     FM232300 34004KT 3SM BR VCTS OVC030CB
     FM240200 05004KT 6SM BR VCTS OVC035CB
     FM240500 06005KT P6SM -SHRA OVC045=

USA.gov is the U.S. government's official web portal to all federal, state and local government web resources and services.